Time;durP1;ratioP1;P1;durP2;ratioP2;P2;SDS_P1;SDS_P2;PMS_P1;PMS_P2;Temp;Humidity;BMP_temperature;BMP_pressure;BME280_temperature;BME280_humidity;BME280_pressure;Samples;Min_cycle;Max_cycle;Signal;HPM_P1;HPM_P2
2024/03/27 00:02:11;;;;;;;12.07;4.72;;;;;;;;;;4922122;29;20039;-87
2024/03/27 00:04:56;;;;;;;11.38;5.25;;;;;;;;;;4931361;29;20034;-88
2024/03/27 00:07:47;;;;;;;10.02;4.65;;;;;;;;;;4914610;29;20020;-87
2024/03/27 00:10:33;;;;;;;12.80;4.63;;;;;;;;;;4914709;29;20036;-87
2024/03/27 00:13:18;;;;;;;8.65;4.35;;;;;;;;;;4913961;29;20534;-87
2024/03/27 00:16:03;;;;;;;11.77;5.80;;;;;;;;;;4921606;28;20506;-88
2024/03/27 00:18:50;;;;;;;11.25;5.57;;;;;;;;;;4930364;29;20111;-87
2024/03/27 00:21:36;;;;;;;10.75;4.57;;;;;;;;;;4916569;29;20070;-87
2024/03/27 00:24:21;;;;;;;13.45;5.32;;;;;;;;;;4913583;29;20041;-88
2024/03/27 00:27:07;;;;;;;10.05;4.40;;;;;;;;;;4919589;29;20024;-88
2024/03/27 00:29:52;;;;;;;7.57;4.25;;;;;;;;;;4913463;29;20036;-87
2024/03/27 00:32:38;;;;;;;10.32;4.32;;;;;;;;;;4920253;29;20040;-87
2024/03/27 00:35:23;;;;;;;9.75;5.25;;;;;;;;;;4921822;29;20032;-86
2024/03/27 00:38:08;;;;;;;11.27;5.22;;;;;;;;;;4943668;28;20028;-87
2024/03/27 00:40:54;;;;;;;9.32;4.63;;;;;;;;;;4926855;29;20032;-86
2024/03/27 00:43:39;;;;;;;12.50;5.70;;;;;;;;;;4932947;28;20025;-86
2024/03/27 00:46:24;;;;;;;7.07;3.80;;;;;;;;;;4949700;29;20048;-86
2024/03/27 00:49:10;;;;;;;8.25;4.63;;;;;;;;;;4931284;29;20024;-87
2024/03/27 00:51:55;;;;;;;8.15;4.38;;;;;;;;;;4922905;29;20038;-87
2024/03/27 00:54:40;;;;;;;9.27;4.03;;;;;;;;;;4926682;29;20028;-87
2024/03/27 00:57:25;;;;;;;8.05;3.92;;;;;;;;;;4925023;29;20162;-87
2024/03/27 01:00:10;;;;;;;8.77;3.70;;;;;;;;;;4917488;29;20340;-87
2024/03/27 01:02:56;;;;;;;9.82;5.05;;;;;;;;;;4926793;28;20024;-87
2024/03/27 01:05:41;;;;;;;16.10;5.10;;;;;;;;;;4926102;29;20106;-88
2024/03/27 01:08:27;;;;;;;7.32;4.53;;;;;;;;;;4922755;29;20059;-90
2024/03/27 01:11:12;;;;;;;10.50;3.72;;;;;;;;;;4923904;29;20466;-88
2024/03/27 01:13:59;;;;;;;5.72;3.60;;;;;;;;;;4920422;29;20039;-89
2024/03/27 01:16:44;;;;;;;6.78;3.70;;;;;;;;;;4930043;29;20035;-87
2024/03/27 01:19:30;;;;;;;7.60;4.10;;;;;;;;;;4916769;29;20052;-88
2024/03/27 01:22:15;;;;;;;6.57;3.38;;;;;;;;;;4919674;29;20035;-88
2024/03/27 01:25:01;;;;;;;6.70;3.70;;;;;;;;;;4922946;29;20028;-88
2024/03/27 01:27:46;;;;;;;8.63;4.43;;;;;;;;;;4912303;29;20027;-86
2024/03/27 01:30:31;;;;;;;6.85;3.60;;;;;;;;;;4929578;28;20032;-88
2024/03/27 01:33:19;;;;;;;8.10;3.55;;;;;;;;;;4919193;29;20020;-87
2024/03/27 01:36:05;;;;;;;9.43;4.30;;;;;;;;;;4923831;29;20474;-88
2024/03/27 01:38:50;;;;;;;7.55;3.88;;;;;;;;;;4919439;29;20051;-88
2024/03/27 01:41:35;;;;;;;7.68;3.20;;;;;;;;;;4914945;29;20035;-87
2024/03/27 01:44:20;;;;;;;5.38;3.33;;;;;;;;;;4915199;29;20110;-88
2024/03/27 01:47:07;;;;;;;5.75;3.50;;;;;;;;;;4919292;29;20024;-88
2024/03/27 01:49:53;;;;;;;6.22;3.45;;;;;;;;;;4920606;29;20085;-85
2024/03/27 01:52:40;;;;;;;7.10;4.15;;;;;;;;;;4921555;29;20024;-86
2024/03/27 01:55:25;;;;;;;5.43;3.30;;;;;;;;;;4932257;28;20043;-85
2024/03/27 01:58:10;;;;;;;8.35;3.92;;;;;;;;;;4906371;29;20097;-86
2024/03/27 02:00:56;;;;;;;9.13;3.88;;;;;;;;;;4939198;28;20055;-85
2024/03/27 02:03:41;;;;;;;6.72;4.15;;;;;;;;;;4917145;29;20107;-86
2024/03/27 02:06:26;;;;;;;10.93;4.05;;;;;;;;;;4922571;29;20028;-85
2024/03/27 02:09:12;;;;;;;7.05;4.22;;;;;;;;;;4922573;29;20027;-85
2024/03/27 02:11:57;;;;;;;5.95;3.50;;;;;;;;;;4930799;28;20039;-86
2024/03/27 02:14:42;;;;;;;6.38;3.47;;;;;;;;;;4923480;29;20055;-86
2024/03/27 02:17:28;;;;;;;9.05;3.95;;;;;;;;;;4938270;28;20066;-86
2024/03/27 02:20:13;;;;;;;7.63;3.67;;;;;;;;;;4923219;29;20039;-86
2024/03/27 02:23:02;;;;;;;6.85;3.60;;;;;;;;;;4915444;29;20028;-87
2024/03/27 02:26:00;;;;;;;6.55;3.60;;;;;;;;;;4957777;28;20021;-87
2024/03/27 02:28:45;;;;;;;8.68;4.43;;;;;;;;;;4925130;29;20365;-86
2024/03/27 02:31:30;;;;;;;5.40;3.03;;;;;;;;;;4934448;28;20032;-87
2024/03/27 02:34:15;;;;;;;7.05;3.20;;;;;;;;;;4915517;29;20036;-86
2024/03/27 02:37:01;;;;;;;8.48;3.40;;;;;;;;;;4921199;29;20114;-86
2024/03/27 02:39:46;;;;;;;7.25;3.17;;;;;;;;;;4923724;29;20078;-87
2024/03/27 02:42:31;;;;;;;7.68;3.30;;;;;;;;;;4927514;28;20158;-89
2024/03/27 02:45:17;;;;;;;7.53;4.20;;;;;;;;;;4903186;29;20020;-88
2024/03/27 02:48:02;;;;;;;6.82;3.58;;;;;;;;;;4919672;29;20020;-87
2024/03/27 02:50:47;;;;;;;9.45;3.85;;;;;;;;;;4928742;29;20446;-87
2024/03/27 02:53:33;;;;;;;8.50;4.47;;;;;;;;;;4927851;29;20445;-86
2024/03/27 02:56:18;;;;;;;6.45;3.50;;;;;;;;;;4915461;29;20329;-85
2024/03/27 02:59:04;;;;;;;7.43;3.45;;;;;;;;;;4909927;29;20032;-86
2024/03/27 03:01:49;;;;;;;7.90;3.45;;;;;;;;;;4917686;29;20032;-86
2024/03/27 03:04:34;;;;;;;5.15;3.17;;;;;;;;;;4918325;29;20076;-87
2024/03/27 03:07:19;;;;;;;7.15;3.60;;;;;;;;;;4921212;29;20038;-85
2024/03/27 03:10:05;;;;;;;7.15;3.70;;;;;;;;;;4928209;29;20067;-86
2024/03/27 03:12:50;;;;;;;6.50;3.30;;;;;;;;;;4923193;29;20219;-86
2024/03/27 03:15:35;;;;;;;6.30;3.25;;;;;;;;;;4926802;29;20048;-86
2024/03/27 03:18:21;;;;;;;6.45;3.28;;;;;;;;;;4916287;29;20028;-86
2024/03/27 03:21:06;;;;;;;7.07;3.58;;;;;;;;;;4936882;28;20044;-86
2024/03/27 03:23:51;;;;;;;11.40;4.53;;;;;;;;;;4940911;29;20028;-86
2024/03/27 03:26:38;;;;;;;12.15;3.75;;;;;;;;;;4918604;29;20413;-87
2024/03/27 03:29:23;;;;;;;5.97;3.88;;;;;;;;;;4926697;29;20038;-86
2024/03/27 03:32:08;;;;;;;7.20;3.40;;;;;;;;;;4926342;29;20035;-86
2024/03/27 03:34:54;;;;;;;5.53;3.00;;;;;;;;;;4919414;29;20118;-85
2024/03/27 03:37:39;;;;;;;4.95;3.53;;;;;;;;;;4919217;29;20053;-85
2024/03/27 03:40:27;;;;;;;8.95;2.92;;;;;;;;;;4919300;29;20032;-84
2024/03/27 03:43:12;;;;;;;8.00;4.28;;;;;;;;;;4918625;29;20023;-88
2024/03/27 03:45:57;;;;;;;7.35;3.30;;;;;;;;;;4920363;29;20015;-85
2024/03/27 03:48:42;;;;;;;6.38;2.92;;;;;;;;;;4923962;29;20030;-84
2024/03/27 03:51:28;;;;;;;6.70;2.90;;;;;;;;;;4930495;29;20032;-83
2024/03/27 03:54:13;;;;;;;6.45;3.95;;;;;;;;;;4940411;28;20052;-86
2024/03/27 03:56:58;;;;;;;6.40;3.33;;;;;;;;;;4936061;29;20471;-87
2024/03/27 03:59:44;;;;;;;8.77;3.67;;;;;;;;;;4916497;29;20502;-87
2024/03/27 04:02:29;;;;;;;7.88;3.70;;;;;;;;;;4925328;29;20030;-86
2024/03/27 04:05:15;;;;;;;7.97;3.67;;;;;;;;;;4938069;28;20039;-84
2024/03/27 04:08:00;;;;;;;5.95;3.63;;;;;;;;;;4916990;29;20133;-87
2024/03/27 04:10:46;;;;;;;7.53;3.67;;;;;;;;;;4924971;29;20035;-86
2024/03/27 04:13:31;;;;;;;8.57;3.78;;;;;;;;;;4911858;29;20028;-87
2024/03/27 04:16:16;;;;;;;9.52;3.47;;;;;;;;;;4915581;29;20044;-87
2024/03/27 04:19:01;;;;;;;8.02;3.85;;;;;;;;;;4915211;29;20048;-88
2024/03/27 04:21:46;;;;;;;7.13;4.22;;;;;;;;;;4936173;29;20028;-86
2024/03/27 04:24:32;;;;;;;9.77;3.70;;;;;;;;;;4931093;28;20034;-86
2024/03/27 04:27:17;;;;;;;8.35;3.72;;;;;;;;;;4930538;28;20064;-86
2024/03/27 04:30:02;;;;;;;8.05;3.58;;;;;;;;;;4917655;29;20055;-87
2024/03/27 04:32:47;;;;;;;7.25;3.80;;;;;;;;;;4916241;29;20094;-85
2024/03/27 04:35:32;;;;;;;7.55;3.47;;;;;;;;;;4920400;28;20399;-86
2024/03/27 04:38:18;;;;;;;6.65;3.25;;;;;;;;;;4922102;28;20051;-87
2024/03/27 04:41:09;;;;;;;8.00;3.42;;;;;;;;;;4934966;29;20020;-88
2024/03/27 04:43:54;;;;;;;8.43;4.18;;;;;;;;;;4914186;29;20032;-88
2024/03/27 04:46:40;;;;;;;6.35;3.95;;;;;;;;;;4916540;29;20039;-88
2024/03/27 04:49:25;;;;;;;8.23;3.95;;;;;;;;;;4916009;28;20495;-88
2024/03/27 04:52:10;;;;;;;7.93;3.75;;;;;;;;;;4913936;29;20085;-88
2024/03/27 04:54:55;;;;;;;8.48;4.18;;;;;;;;;;4909184;29;20036;-88
2024/03/27 04:57:41;;;;;;;9.10;4.57;;;;;;;;;;4914725;29;20039;-85
2024/03/27 05:00:26;;;;;;;7.13;3.75;;;;;;;;;;4914256;29;20436;-86
2024/03/27 05:03:11;;;;;;;7.78;3.97;;;;;;;;;;4919904;28;20390;-87
2024/03/27 05:05:56;;;;;;;11.15;4.78;;;;;;;;;;4932620;29;20387;-86
2024/03/27 05:08:42;;;;;;;8.52;4.40;;;;;;;;;;4921949;29;20057;-88
2024/03/27 05:11:27;;;;;;;8.02;4.13;;;;;;;;;;4906988;29;20036;-85
2024/03/27 05:14:12;;;;;;;5.72;3.60;;;;;;;;;;4901893;28;20040;-85
2024/03/27 05:16:57;;;;;;;6.57;3.45;;;;;;;;;;4916367;29;20110;-87
2024/03/27 05:19:43;;;;;;;12.40;4.15;;;;;;;;;;4922975;29;20020;-85
2024/03/27 05:22:31;;;;;;;8.82;3.78;;;;;;;;;;4921440;28;20035;-83
2024/03/27 05:25:16;;;;;;;8.63;3.40;;;;;;;;;;4914956;29;20451;-83
2024/03/27 05:28:01;;;;;;;7.90;3.83;;;;;;;;;;4918261;29;20074;-84
2024/03/27 05:30:46;;;;;;;6.80;4.18;;;;;;;;;;4917467;29;20114;-83
2024/03/27 05:33:31;;;;;;;9.40;4.05;;;;;;;;;;4936351;29;20031;-82
2024/03/27 05:36:16;;;;;;;9.25;3.72;;;;;;;;;;4920789;29;20082;-82
2024/03/27 05:39:02;;;;;;;8.75;3.90;;;;;;;;;;4921619;29;20028;-82
2024/03/27 05:41:47;;;;;;;8.10;4.32;;;;;;;;;;4908899;29;20024;-83
2024/03/27 05:44:32;;;;;;;8.23;3.88;;;;;;;;;;4925728;29;20377;-83
2024/03/27 05:47:18;;;;;;;8.60;3.55;;;;;;;;;;4918813;29;20192;-81
2024/03/27 05:50:05;;;;;;;10.02;4.45;;;;;;;;;;4913488;29;20103;-82
2024/03/27 05:52:50;;;;;;;9.70;4.60;;;;;;;;;;4941061;29;20031;-83
2024/03/27 05:55:35;;;;;;;9.27;4.82;;;;;;;;;;4914430;29;20075;-83
2024/03/27 05:58:21;;;;;;;15.05;4.80;;;;;;;;;;4919310;29;20033;-82
2024/03/27 06:01:06;;;;;;;9.15;4.13;;;;;;;;;;4924036;29;20070;-82
2024/03/27 06:03:51;;;;;;;11.75;4.60;;;;;;;;;;4920968;29;20102;-82
2024/03/27 06:06:37;;;;;;;8.60;4.43;;;;;;;;;;4921854;29;20111;-82
2024/03/27 06:09:23;;;;;;;9.05;4.45;;;;;;;;;;4916579;29;20028;-83
2024/03/27 06:12:08;;;;;;;9.63;4.40;;;;;;;;;;4917552;29;20050;-83
2024/03/27 06:14:53;;;;;;;8.88;4.03;;;;;;;;;;4919496;29;20063;-84
2024/03/27 06:17:39;;;;;;;7.60;3.58;;;;;;;;;;4927657;29;20177;-84
2024/03/27 06:20:24;;;;;;;12.63;4.10;;;;;;;;;;4927769;29;20097;-82
2024/03/27 06:23:09;;;;;;;10.90;3.97;;;;;;;;;;4916733;28;20047;-85
2024/03/27 06:25:58;;;;;;;9.82;4.40;;;;;;;;;;4947990;28;20036;-88
2024/03/27 06:28:43;;;;;;;8.00;3.75;;;;;;;;;;4922189;29;20024;-87
2024/03/27 06:31:29;;;;;;;7.97;3.70;;;;;;;;;;4959578;28;20032;-86
2024/03/27 06:34:14;;;;;;;8.15;3.20;;;;;;;;;;4930336;29;20047;-84
2024/03/27 06:37:00;;;;;;;6.88;2.92;;;;;;;;;;4925388;29;20051;-87
2024/03/27 06:39:45;;;;;;;10.98;3.85;;;;;;;;;;4915362;29;20502;-87
2024/03/27 06:42:30;;;;;;;7.88;3.20;;;;;;;;;;4922885;29;20047;-85
2024/03/27 06:45:15;;;;;;;5.18;3.28;;;;;;;;;;4921893;29;20493;-85
2024/03/27 06:48:00;;;;;;;7.68;3.58;;;;;;;;;;4924112;28;20479;-85
2024/03/27 06:50:55;;;;;;;5.75;3.15;;;;;;;;;;4918022;29;20051;-86
2024/03/27 06:53:43;;;;;;;7.80;3.75;;;;;;;;;;4921361;29;20020;-90
2024/03/27 06:56:28;;;;;;;12.25;3.75;;;;;;;;;;4929903;28;20059;-91
2024/03/27 06:59:13;;;;;;;9.73;3.55;;;;;;;;;;4927740;28;20059;-88
2024/03/27 07:01:59;;;;;;;10.88;3.92;;;;;;;;;;4922713;28;20054;-88
2024/03/27 07:04:44;;;;;;;6.63;3.45;;;;;;;;;;4932091;28;20067;-89
2024/03/27 07:07:29;;;;;;;7.63;3.78;;;;;;;;;;4933095;28;20059;-90
2024/03/27 07:10:14;;;;;;;11.20;4.20;;;;;;;;;;4961081;28;20036;-90
2024/03/27 07:13:00;;;;;;;9.73;3.70;;;;;;;;;;4929590;28;20063;-84
2024/03/27 07:15:51;;;;;;;16.38;5.22;;;;;;;;;;4914885;28;20068;-88
2024/03/27 07:18:37;;;;;;;9.40;3.78;;;;;;;;;;4923586;28;20386;-88
2024/03/27 07:21:22;;;;;;;10.48;3.85;;;;;;;;;;4936337;28;20118;-89
2024/03/27 07:24:08;;;;;;;8.25;3.92;;;;;;;;;;4933788;29;20023;-85
2024/03/27 07:26:57;;;;;;;6.53;3.80;;;;;;;;;;4926898;29;20028;-84
2024/03/27 07:29:42;;;;;;;11.05;3.95;;;;;;;;;;4916805;28;20134;-86
2024/03/27 07:32:27;;;;;;;14.85;5.93;;;;;;;;;;4917664;28;20028;-87
2024/03/27 07:35:13;;;;;;;11.38;4.95;;;;;;;;;;4920175;29;20027;-86
2024/03/27 07:37:58;;;;;;;10.82;4.22;;;;;;;;;;4911507;29;20021;-88
2024/03/27 07:40:44;;;;;;;7.82;4.70;;;;;;;;;;4938616;28;20032;-88
2024/03/27 07:43:34;;;;;;;11.75;4.70;;;;;;;;;;4921194;29;20036;-87
2024/03/27 07:46:19;;;;;;;7.07;4.15;;;;;;;;;;4928292;28;20098;-87
2024/03/27 07:49:05;;;;;;;13.80;5.15;;;;;;;;;;4924375;29;20028;-89
2024/03/27 07:51:50;;;;;;;9.02;4.75;;;;;;;;;;4919082;29;20122;-89
2024/03/27 07:54:35;;;;;;;14.68;5.38;;;;;;;;;;4922298;29;20023;-86
2024/03/27 07:57:21;;;;;;;10.02;5.47;;;;;;;;;;4983517;28;20031;-89
2024/03/27 08:00:11;;;;;;;9.13;5.47;;;;;;;;;;4909559;29;20137;-87
2024/03/27 08:02:57;;;;;;;9.45;4.88;;;;;;;;;;4919841;29;20115;-88
2024/03/27 08:05:43;;;;;;;9.73;4.63;;;;;;;;;;4920025;29;20039;-88
2024/03/27 08:08:28;;;;;;;8.40;5.18;;;;;;;;;;4920503;28;20094;-89
2024/03/27 08:11:14;;;;;;;8.52;4.28;;;;;;;;;;4921796;28;20039;-87
2024/03/27 08:14:04;;;;;;;8.30;4.43;;;;;;;;;;4918438;29;20108;-88
2024/03/27 08:16:49;;;;;;;9.18;4.57;;;;;;;;;;4910707;28;20422;-88
2024/03/27 08:19:39;;;;;;;7.25;3.88;;;;;;;;;;4923097;28;20551;-86
2024/03/27 08:22:25;;;;;;;7.05;3.83;;;;;;;;;;4922944;28;20040;-86
2024/03/27 08:25:10;;;;;;;8.93;3.90;;;;;;;;;;4910423;29;20032;-85
2024/03/27 08:27:56;;;;;;;7.90;3.40;;;;;;;;;;4961495;28;20029;-87
2024/03/27 08:30:44;;;;;;;8.35;4.80;;;;;;;;;;4923668;28;20379;-90
2024/03/27 08:33:29;;;;;;;10.10;4.25;;;;;;;;;;4919137;28;20099;-88
2024/03/27 08:36:14;;;;;;;9.55;3.92;;;;;;;;;;4918609;29;20040;-89
2024/03/27 08:39:00;;;;;;;13.13;4.70;;;;;;;;;;4918737;29;20039;-88
2024/03/27 08:41:48;;;;;;;6.45;3.45;;;;;;;;;;4920392;28;20110;-89
2024/03/27 08:44:37;;;;;;;8.60;4.40;;;;;;;;;;4922447;28;20107;-89
2024/03/27 08:47:22;;;;;;;8.82;4.32;;;;;;;;;;4904223;29;20068;-79
2024/03/27 08:50:12;;;;;;;7.40;4.07;;;;;;;;;;4914530;29;20031;-81
2024/03/27 08:52:57;;;;;;;9.10;4.75;;;;;;;;;;4923964;29;20032;-82
2024/03/27 08:55:43;;;;;;;9.13;4.55;;;;;;;;;;4922642;29;20027;-83
2024/03/27 08:58:28;;;;;;;13.88;4.90;;;;;;;;;;4918679;28;20236;-81
2024/03/27 09:01:17;;;;;;;11.52;4.75;;;;;;;;;;4903894;29;20027;-80
2024/03/27 09:04:14;;;;;;;9.10;4.10;;;;;;;;;;4920191;28;20079;-80
2024/03/27 09:06:59;;;;;;;13.93;4.10;;;;;;;;;;4927063;29;20028;-80
2024/03/27 09:09:44;;;;;;;7.18;3.67;;;;;;;;;;4919568;28;20039;-80
2024/03/27 09:12:30;;;;;;;12.93;5.25;;;;;;;;;;4919921;29;20024;-80
2024/03/27 09:15:15;;;;;;;9.65;4.85;;;;;;;;;;4918872;29;20044;-79
2024/03/27 09:18:01;;;;;;;12.32;4.70;;;;;;;;;;4919069;28;20114;-80
2024/03/27 09:21:00;;;;;;;10.65;5.40;;;;;;;;;;4922756;29;20089;-79
2024/03/27 09:23:45;;;;;;;10.20;4.28;;;;;;;;;;4926048;29;20053;-79
2024/03/27 09:26:30;;;;;;;12.38;4.57;;;;;;;;;;4917181;29;20043;-80
2024/03/27 09:29:16;;;;;;;12.20;4.95;;;;;;;;;;4921492;29;20036;-79
2024/03/27 09:32:01;;;;;;;8.30;5.07;;;;;;;;;;4908802;28;20113;-79
2024/03/27 09:34:46;;;;;;;15.95;4.95;;;;;;;;;;4912030;28;20085;-77
2024/03/27 09:37:33;;;;;;;10.90;4.72;;;;;;;;;;4916898;28;20036;-79
2024/03/27 09:40:18;;;;;;;10.45;4.28;;;;;;;;;;4920457;29;20036;-76
2024/03/27 09:43:04;;;;;;;9.75;5.00;;;;;;;;;;4925926;29;20110;-77
2024/03/27 09:45:51;;;;;;;9.27;4.72;;;;;;;;;;4926677;29;20024;-76
2024/03/27 09:48:39;;;;;;;7.60;4.45;;;;;;;;;;4927043;29;20032;-76
2024/03/27 09:51:25;;;;;;;12.63;4.32;;;;;;;;;;4928348;29;20437;-78
2024/03/27 09:54:10;;;;;;;7.35;3.42;;;;;;;;;;4927108;29;20035;-78
2024/03/27 09:56:55;;;;;;;10.52;4.68;;;;;;;;;;4927369;29;20126;-78
2024/03/27 09:59:40;;;;;;;7.30;3.97;;;;;;;;;;4926990;29;20028;-78
2024/03/27 10:02:26;;;;;;;7.43;4.82;;;;;;;;;;4927148;29;20032;-78
2024/03/27 10:05:12;;;;;;;6.30;4.28;;;;;;;;;;4927278;29;20028;-78
2024/03/27 10:07:58;;;;;;;7.10;3.70;;;;;;;;;;4926699;29;20032;-77
2024/03/27 10:10:43;;;;;;;8.38;4.05;;;;;;;;;;4927067;29;20034;-76
2024/03/27 10:13:29;;;;;;;7.40;4.28;;;;;;;;;;4926813;29;20102;-78
2024/03/27 10:16:14;;;;;;;9.70;4.15;;;;;;;;;;4925718;29;20047;-78
2024/03/27 10:18:59;;;;;;;7.13;3.42;;;;;;;;;;4926797;29;20028;-78
2024/03/27 10:21:45;;;;;;;6.57;3.47;;;;;;;;;;4927027;29;20082;-78
2024/03/27 10:24:30;;;;;;;10.38;3.78;;;;;;;;;;4926991;29;20071;-77
2024/03/27 10:27:15;;;;;;;6.13;3.72;;;;;;;;;;4913595;29;20109;-78
2024/03/27 10:30:01;;;;;;;8.68;3.75;;;;;;;;;;4927199;29;20462;-77
2024/03/27 10:32:47;;;;;;;6.75;3.53;;;;;;;;;;4926239;29;20106;-77
2024/03/27 10:35:32;;;;;;;6.32;3.53;;;;;;;;;;4926667;29;20066;-77
2024/03/27 10:38:19;;;;;;;9.32;3.95;;;;;;;;;;4940358;29;20107;-77
2024/03/27 10:41:05;;;;;;;7.78;4.22;;;;;;;;;;4926683;29;20410;-78
2024/03/27 10:43:55;;;;;;;5.95;3.28;;;;;;;;;;4926218;29;20024;-77
2024/03/27 10:46:40;;;;;;;;;;;;;;;;;;4926731;29;20034;-77
2024/03/27 10:49:25;;;;;;;7.93;3.97;;;;;;;;;;4926553;29;19921;-77
2024/03/27 10:52:11;;;;;;;8.30;3.90;;;;;;;;;;4926201;29;20118;-77
2024/03/27 10:54:57;;;;;;;7.93;3.75;;;;;;;;;;4926380;29;20126;-77
2024/03/27 10:57:43;;;;;;;7.13;3.60;;;;;;;;;;4926269;29;20061;-77
2024/03/27 11:00:28;;;;;;;5.20;3.75;;;;;;;;;;4925759;29;20024;-77
2024/03/27 11:03:14;;;;;;;6.38;3.42;;;;;;;;;;4939477;29;20031;-77
2024/03/27 11:05:59;;;;;;;7.35;4.15;;;;;;;;;;4925958;29;20058;-76
2024/03/27 11:08:46;;;;;;;8.20;3.80;;;;;;;;;;4926347;29;20454;-78
2024/03/27 11:11:31;;;;;;;6.38;4.32;;;;;;;;;;4926516;28;20032;-78
2024/03/27 11:14:17;;;;;;;7.63;3.88;;;;;;;;;;4926026;29;20151;-77
2024/03/27 11:17:03;;;;;;;9.40;4.10;;;;;;;;;;4926083;29;20089;-78
2024/03/27 11:19:48;;;;;;;5.53;3.88;;;;;;;;;;4925758;29;20029;-77
2024/03/27 11:22:35;;;;;;;5.80;3.50;;;;;;;;;;4925814;29;20534;-76
2024/03/27 11:25:22;;;;;;;6.85;3.85;;;;;;;;;;4925867;29;20035;-77
2024/03/27 11:28:16;;;;;;;8.38;4.45;;;;;;;;;;4925745;29;20086;-78
2024/03/27 11:31:03;;;;;;;8.98;4.60;;;;;;;;;;4925822;29;20423;-78
2024/03/27 11:33:48;;;;;;;5.18;3.33;;;;;;;;;;4925718;29;20036;-78
2024/03/27 11:36:33;;;;;;;6.65;3.50;;;;;;;;;;4995417;28;20035;-78
2024/03/27 11:39:20;;;;;;;4.30;3.20;;;;;;;;;;4925435;29;20122;-77
2024/03/27 11:42:07;;;;;;;9.35;4.88;;;;;;;;;;4939279;29;20035;-77
2024/03/27 11:44:52;;;;;;;7.05;4.28;;;;;;;;;;4925674;29;20020;-77
2024/03/27 11:47:38;;;;;;;7.82;4.47;;;;;;;;;;4925657;29;20034;-77
2024/03/27 11:50:23;;;;;;;6.97;3.90;;;;;;;;;;4925385;29;20028;-77
2024/03/27 11:53:11;;;;;;;7.18;4.40;;;;;;;;;;4925347;29;20027;-76
2024/03/27 11:55:56;;;;;;;4.63;3.58;;;;;;;;;;4925179;29;20532;-77
2024/03/27 11:58:42;;;;;;;6.93;4.05;;;;;;;;;;4938799;29;20127;-77
2024/03/27 12:01:28;;;;;;;5.97;3.78;;;;;;;;;;4924855;29;20408;-76
2024/03/27 12:04:14;;;;;;;5.93;3.63;;;;;;;;;;4925608;29;20166;-77
2024/03/27 12:06:59;;;;;;;5.55;3.28;;;;;;;;;;4925351;29;20038;-77
2024/03/27 12:09:45;;;;;;;5.43;3.10;;;;;;;;;;4906516;29;20032;-77
2024/03/27 12:12:31;;;;;;;6.53;2.92;;;;;;;;;;4919453;29;20052;-77
2024/03/27 12:15:17;;;;;;;4.03;2.50;;;;;;;;;;4919469;29;20834;-77
2024/03/27 12:18:03;;;;;;;4.72;2.40;;;;;;;;;;4919858;29;20051;-76
2024/03/27 12:20:48;;;;;;;3.05;2.08;;;;;;;;;;4918908;29;20047;-76
2024/03/27 12:23:36;;;;;;;6.53;2.88;;;;;;;;;;4918648;29;20048;-78
2024/03/27 12:26:22;;;;;;;2.10;1.70;;;;;;;;;;4919351;29;20032;-78
2024/03/27 12:29:07;;;;;;;2.00;1.50;;;;;;;;;;4917943;29;20051;-79
2024/03/27 12:31:55;;;;;;;1.60;1.30;;;;;;;;;;4913320;29;20557;-78
2024/03/27 12:34:40;;;;;;;1.48;1.38;;;;;;;;;;4899209;29;20032;-78
2024/03/27 12:37:26;;;;;;;1.00;0.98;;;;;;;;;;4914506;29;20079;-79
2024/03/27 12:40:11;;;;;;;1.55;1.35;;;;;;;;;;4917507;28;20039;-78
2024/03/27 12:42:56;;;;;;;1.75;1.23;;;;;;;;;;4935907;29;20024;-78
2024/03/27 12:45:42;;;;;;;1.17;1.00;;;;;;;;;;4934775;29;20055;-78
2024/03/27 12:48:27;;;;;;;2.05;0.90;;;;;;;;;;4914818;29;20101;-78
2024/03/27 12:51:12;;;;;;;1.50;1.33;;;;;;;;;;4913214;29;20023;-77
2024/03/27 12:53:58;;;;;;;1.52;1.30;;;;;;;;;;4916440;29;20126;-78
2024/03/27 12:56:43;;;;;;;1.77;1.13;;;;;;;;;;4914048;29;20130;-77
2024/03/27 12:59:28;;;;;;;1.00;0.90;;;;;;;;;;4903306;29;20328;-81
2024/03/27 13:02:13;;;;;;;1.27;1.13;;;;;;;;;;4902966;28;20020;-79
2024/03/27 13:04:58;;;;;;;3.20;1.40;;;;;;;;;;4903411;28;20032;-76
2024/03/27 13:07:44;;;;;;;1.33;1.10;;;;;;;;;;4932368;29;20032;-79
2024/03/27 13:10:29;;;;;;;4.97;1.02;;;;;;;;;;4910361;29;20067;-78
2024/03/27 13:13:16;;;;;;;2.40;1.08;;;;;;;;;;4906220;28;20324;-77
2024/03/27 13:16:01;;;;;;;2.20;1.17;;;;;;;;;;4919059;28;20485;-79
2024/03/27 13:18:47;;;;;;;1.42;1.00;;;;;;;;;;4913604;28;20024;-79
2024/03/27 13:21:32;;;;;;;1.02;1.00;;;;;;;;;;4913387;29;20024;-78
2024/03/27 13:24:19;;;;;;;2.45;1.15;;;;;;;;;;4923162;29;20032;-78
2024/03/27 13:27:04;;;;;;;1.30;1.00;;;;;;;;;;4908617;29;20040;-79
2024/03/27 13:29:49;;;;;;;1.10;1.00;;;;;;;;;;4935366;28;20163;-78
2024/03/27 13:32:35;;;;;;;1.45;0.85;;;;;;;;;;4925881;29;20114;-79
2024/03/27 13:35:21;;;;;;;1.52;1.13;;;;;;;;;;4910866;29;20046;-79
2024/03/27 13:38:07;;;;;;;1.20;1.00;;;;;;;;;;4914106;29;20044;-79
2024/03/27 13:40:52;;;;;;;1.80;1.40;;;;;;;;;;4918431;28;20023;-80
2024/03/27 13:43:38;;;;;;;1.00;0.90;;;;;;;;;;4929840;28;20038;-79
2024/03/27 13:46:23;;;;;;;3.80;1.15;;;;;;;;;;4913176;29;20039;-78
2024/03/27 13:49:09;;;;;;;2.50;0.90;;;;;;;;;;4919867;29;20024;-79
2024/03/27 13:51:54;;;;;;;1.60;1.02;;;;;;;;;;4920397;29;20031;-78
2024/03/27 13:54:41;;;;;;;0.70;0.70;;;;;;;;;;4917139;29;20031;-79
2024/03/27 13:57:27;;;;;;;0.73;0.73;;;;;;;;;;4985737;28;20089;-79
2024/03/27 14:00:12;;;;;;;0.80;0.80;;;;;;;;;;4909463;29;20036;-78
2024/03/27 14:02:58;;;;;;;0.80;0.80;;;;;;;;;;4914037;29;20106;-78
2024/03/27 14:05:44;;;;;;;1.55;0.90;;;;;;;;;;4904222;29;20036;-78
2024/03/27 14:08:29;;;;;;;1.10;1.00;;;;;;;;;;4934821;29;20031;-78
2024/03/27 14:11:14;;;;;;;0.70;0.70;;;;;;;;;;4913349;29;20107;-79
2024/03/27 14:14:00;;;;;;;1.95;0.73;;;;;;;;;;4916852;29;20028;-79
2024/03/27 14:16:45;;;;;;;3.72;0.95;;;;;;;;;;4985115;28;20344;-77
2024/03/27 14:19:30;;;;;;;1.42;1.02;;;;;;;;;;4990210;28;20040;-78
2024/03/27 14:22:18;;;;;;;0.70;0.70;;;;;;;;;;4914351;29;20032;-78
2024/03/27 14:25:04;;;;;;;1.13;0.90;;;;;;;;;;4905937;29;20024;-78
2024/03/27 14:27:50;;;;;;;0.70;0.70;;;;;;;;;;4909435;29;20039;-77
2024/03/27 14:30:35;;;;;;;1.45;0.88;;;;;;;;;;4907675;28;20047;-75
2024/03/27 14:33:20;;;;;;;1.48;0.85;;;;;;;;;;4906112;29;20214;-77
2024/03/27 14:36:05;;;;;;;2.10;0.90;;;;;;;;;;4920925;28;20038;-76
2024/03/27 14:38:51;;;;;;;0.85;0.80;;;;;;;;;;4911635;28;20498;-77
2024/03/27 14:41:36;;;;;;;1.67;1.25;;;;;;;;;;4931003;28;20022;-76
2024/03/27 14:44:21;;;;;;;1.40;0.90;;;;;;;;;;4917219;29;20304;-76
2024/03/27 14:47:06;;;;;;;1.27;1.17;;;;;;;;;;4918452;29;20039;-77
2024/03/27 14:49:52;;;;;;;0.70;0.70;;;;;;;;;;4911209;29;20036;-78
2024/03/27 14:52:38;;;;;;;2.65;1.10;;;;;;;;;;4917469;29;20044;-77
2024/03/27 14:55:24;;;;;;;1.75;0.90;;;;;;;;;;4919465;29;20035;-75
2024/03/27 14:58:09;;;;;;;2.60;1.30;;;;;;;;;;4919930;28;20067;-76
2024/03/27 15:00:54;;;;;;;1.60;1.20;;;;;;;;;;4912119;29;20122;-75
2024/03/27 15:03:39;;;;;;;2.30;1.75;;;;;;;;;;4912077;28;20040;-76
2024/03/27 15:06:25;;;;;;;1.70;1.25;;;;;;;;;;4925941;28;20032;-76
2024/03/27 15:09:10;;;;;;;2.13;1.30;;;;;;;;;;4908743;29;20028;-76
2024/03/27 15:11:55;;;;;;;1.10;1.00;;;;;;;;;;4923045;29;20028;-76
2024/03/27 15:14:40;;;;;;;1.77;1.33;;;;;;;;;;4918451;29;20044;-85
2024/03/27 15:17:37;;;;;;;2.45;1.45;;;;;;;;;;4912796;29;20042;-84
2024/03/27 15:20:22;;;;;;;1.40;1.10;;;;;;;;;;4915605;29;20016;-84
2024/03/27 15:23:08;;;;;;;1.65;1.40;;;;;;;;;;4934112;29;20236;-85
2024/03/27 15:25:59;;;;;;;1.80;1.20;;;;;;;;;;4915602;29;20082;-85
2024/03/27 15:28:45;;;;;;;0.98;0.95;;;;;;;;;;4926060;29;20035;-86
2024/03/27 15:31:30;;;;;;;1.63;1.20;;;;;;;;;;4925724;29;20024;-85
2024/03/27 15:34:15;;;;;;;2.20;1.30;;;;;;;;;;4926627;29;20098;-84
2024/03/27 15:37:02;;;;;;;1.85;1.08;;;;;;;;;;4910181;29;20145;-84
2024/03/27 15:39:47;;;;;;;4.85;1.27;;;;;;;;;;4923485;29;20039;-84
2024/03/27 15:42:33;;;;;;;1.80;1.23;;;;;;;;;;4919816;29;20555;-85
2024/03/27 15:45:18;;;;;;;3.63;1.50;;;;;;;;;;4922782;29;20027;-83
2024/03/27 15:48:03;;;;;;;1.65;1.40;;;;;;;;;;4923066;29;20506;-83
2024/03/27 15:50:48;;;;;;;1.90;1.40;;;;;;;;;;4909842;29;20484;-81
2024/03/27 15:53:34;;;;;;;2.78;2.00;;;;;;;;;;4925565;29;20115;-81
2024/03/27 15:56:20;;;;;;;2.63;1.95;;;;;;;;;;4924847;29;20058;-81
2024/03/27 15:59:05;;;;;;;1.40;1.30;;;;;;;;;;4909312;29;20489;-82
2024/03/27 16:01:51;;;;;;;1.17;1.08;;;;;;;;;;4925618;29;20024;-82
2024/03/27 16:04:36;;;;;;;1.48;1.30;;;;;;;;;;4924764;29;20031;-82
2024/03/27 16:07:21;;;;;;;1.75;1.30;;;;;;;;;;4938644;29;20043;-82
2024/03/27 16:10:07;;;;;;;2.17;1.80;;;;;;;;;;4915308;28;20040;-81
2024/03/27 16:12:52;;;;;;;2.00;1.40;;;;;;;;;;4925702;29;20034;-83
2024/03/27 16:15:37;;;;;;;2.63;1.42;;;;;;;;;;4939794;28;20034;-80
2024/03/27 16:18:23;;;;;;;2.08;1.55;;;;;;;;;;4911074;29;20016;-84
2024/03/27 16:21:08;;;;;;;2.55;1.52;;;;;;;;;;4916068;29;20024;-83
2024/03/27 16:23:53;;;;;;;1.63;1.40;;;;;;;;;;4920912;28;20032;-83
2024/03/27 16:26:38;;;;;;;2.28;1.40;;;;;;;;;;4983425;28;20027;-81
2024/03/27 16:29:24;;;;;;;1.45;1.25;;;;;;;;;;4902690;29;20047;-84
2024/03/27 16:32:09;;;;;;;1.70;1.38;;;;;;;;;;4914972;29;20067;-83